sensor_id;sensor_type;location;lat;lon;timestamp;pressure;altitude;pressure_sealevel;temperature;humidity
64336;BME280;50672;53.362;-6.240;2022-08-18T00:02:06;101522.47;;;17.08;60.71
64336;BME280;50672;53.362;-6.240;2022-08-18T00:04:35;101510.59;;;17.07;60.65
64336;BME280;50672;53.362;-6.240;2022-08-18T00:07:21;101510.38;;;17.09;60.74
64336;BME280;50672;53.362;-6.240;2022-08-18T00:09:49;101501.50;;;17.07;60.78
64336;BME280;50672;53.362;-6.240;2022-08-18T00:12:23;101504.44;;;17.05;60.92
64336;BME280;50672;53.362;-6.240;2022-08-18T00:14:52;101498.28;;;17.03;60.93
64336;BME280;50672;53.362;-6.240;2022-08-18T00:17:19;101495.53;;;17.03;61.46
64336;BME280;50672;53.362;-6.240;2022-08-18T00:19:47;101504.44;;;17.05;61.30
64336;BME280;50672;53.362;-6.240;2022-08-18T00:22:17;101496.00;;;17.07;61.63
64336;BME280;50672;53.362;-6.240;2022-08-18T00:24:46;101494.09;;;17.07;61.56
64336;BME280;50672;53.362;-6.240;2022-08-18T00:27:20;101497.50;;;17.10;61.79
64336;BME280;50672;53.362;-6.240;2022-08-18T00:29:51;101482.03;;;17.08;61.52
64336;BME280;50672;53.362;-6.240;2022-08-18T00:32:24;101475.69;;;17.08;61.69
64336;BME280;50672;53.362;-6.240;2022-08-18T00:34:52;101470.81;;;17.10;62.37
64336;BME280;50672;53.362;-6.240;2022-08-18T00:37:21;101472.75;;;17.10;62.41
64336;BME280;50672;53.362;-6.240;2022-08-18T00:39:52;101463.63;;;17.09;62.69
64336;BME280;50672;53.362;-6.240;2022-08-18T00:42:26;101459.56;;;17.05;62.44
64336;BME280;50672;53.362;-6.240;2022-08-18T00:45:00;101457.22;;;17.02;63.21
64336;BME280;50672;53.362;-6.240;2022-08-18T00:47:29;101458.47;;;16.99;63.22
64336;BME280;50672;53.362;-6.240;2022-08-18T00:50:19;101452.34;;;16.97;62.89
64336;BME280;50672;53.362;-6.240;2022-08-18T00:53:02;101442.84;;;17.00;63.18
64336;BME280;50672;53.362;-6.240;2022-08-18T00:55:30;101442.63;;;17.01;63.06
64336;BME280;50672;53.362;-6.240;2022-08-18T00:58:06;101433.97;;;17.04;63.49
64336;BME280;50672;53.362;-6.240;2022-08-18T01:00:35;101436.72;;;17.04;63.71
64336;BME280;50672;53.362;-6.240;2022-08-18T01:03:09;101438.84;;;17.02;63.67
64336;BME280;50672;53.362;-6.240;2022-08-18T01:05:59;101432.28;;;17.03;63.73
64336;BME280;50672;53.362;-6.240;2022-08-18T01:08:27;101425.09;;;17.02;63.73
64336;BME280;50672;53.362;-6.240;2022-08-18T01:10:57;101422.50;;;17.01;63.62
64336;BME280;50672;53.362;-6.240;2022-08-18T01:13:27;101418.09;;;17.00;63.50
64336;BME280;50672;53.362;-6.240;2022-08-18T01:15:55;101416.59;;;16.97;63.87
64336;BME280;50672;53.362;-6.240;2022-08-18T01:18:22;101417.00;;;16.94;63.87
64336;BME280;50672;53.362;-6.240;2022-08-18T01:21:19;101418.03;;;16.93;63.73
64336;BME280;50672;53.362;-6.240;2022-08-18T01:24:09;101407.25;;;16.91;63.90
64336;BME280;50672;53.362;-6.240;2022-08-18T01:26:40;101412.34;;;16.95;63.71
64336;BME280;50672;53.362;-6.240;2022-08-18T01:29:17;101403.25;;;16.94;63.97
64336;BME280;50672;53.362;-6.240;2022-08-18T01:31:51;101408.75;;;16.94;64.04
64336;BME280;50672;53.362;-6.240;2022-08-18T01:34:25;101404.28;;;16.93;63.77
64336;BME280;50672;53.362;-6.240;2022-08-18T01:36:53;101390.53;;;16.93;63.77
64336;BME280;50672;53.362;-6.240;2022-08-18T01:39:21;101395.00;;;16.94;63.53
64336;BME280;50672;53.362;-6.240;2022-08-18T01:42:09;101387.78;;;16.93;63.56
64336;BME280;50672;53.362;-6.240;2022-08-18T01:44:37;101388.00;;;16.91;63.30
64336;BME280;50672;53.362;-6.240;2022-08-18T01:47:08;101388.84;;;16.92;63.12
64336;BME280;50672;53.362;-6.240;2022-08-18T01:49:37;101385.25;;;16.91;63.36
64336;BME280;50672;53.362;-6.240;2022-08-18T01:52:04;101378.03;;;16.90;63.02
64336;BME280;50672;53.362;-6.240;2022-08-18T01:54:32;101373.59;;;16.89;62.93
64336;BME280;50672;53.362;-6.240;2022-08-18T01:57:00;101376.34;;;16.89;62.65
64336;BME280;50672;53.362;-6.240;2022-08-18T01:59:28;101370.00;;;16.89;62.46
64336;BME280;50672;53.362;-6.240;2022-08-18T02:01:56;101366.41;;;16.88;62.50
64336;BME280;50672;53.362;-6.240;2022-08-18T02:04:27;101353.88;;;16.86;62.33
64336;BME280;50672;53.362;-6.240;2022-08-18T02:07:05;101348.75;;;16.83;62.20
64336;BME280;50672;53.362;-6.240;2022-08-18T02:09:32;101353.00;;;16.79;61.71
64336;BME280;50672;53.362;-6.240;2022-08-18T02:11:59;101355.50;;;16.73;61.97
64336;BME280;50672;53.362;-6.240;2022-08-18T02:14:26;101346.56;;;16.71;61.62
64336;BME280;50672;53.362;-6.240;2022-08-18T02:16:57;101353.34;;;16.69;61.46
64336;BME280;50672;53.362;-6.240;2022-08-18T02:19:48;101348.69;;;16.69;61.64
64336;BME280;50672;53.362;-6.240;2022-08-18T02:22:18;101340.44;;;16.69;61.15
64336;BME280;50672;53.362;-6.240;2022-08-18T02:24:46;101343.00;;;16.71;61.35
64336;BME280;50672;53.362;-6.240;2022-08-18T02:27:13;101345.53;;;16.72;60.91
64336;BME280;50672;53.362;-6.240;2022-08-18T02:29:41;101336.88;;;16.69;60.90
64336;BME280;50672;53.362;-6.240;2022-08-18T02:32:08;101332.59;;;16.66;60.69
64336;BME280;50672;53.362;-6.240;2022-08-18T02:34:35;101324.94;;;16.62;60.57
64336;BME280;50672;53.362;-6.240;2022-08-18T02:37:02;101321.09;;;16.56;60.46
64336;BME280;50672;53.362;-6.240;2022-08-18T02:39:33;101326.38;;;16.51;60.67
64336;BME280;50672;53.362;-6.240;2022-08-18T02:42:00;101328.66;;;16.47;60.70
64336;BME280;50672;53.362;-6.240;2022-08-18T02:44:27;101308.97;;;16.44;60.69
64336;BME280;50672;53.362;-6.240;2022-08-18T02:46:54;101307.03;;;16.37;60.36
64336;BME280;50672;53.362;-6.240;2022-08-18T02:49:21;101304.69;;;16.34;60.78
64336;BME280;50672;53.362;-6.240;2022-08-18T02:51:49;101293.44;;;16.29;60.38
64336;BME280;50672;53.362;-6.240;2022-08-18T02:54:18;101295.78;;;16.26;60.51
64336;BME280;50672;53.362;-6.240;2022-08-18T02:56:45;101299.75;;;16.23;60.64
64336;BME280;50672;53.362;-6.240;2022-08-18T02:59:15;101292.56;;;16.22;60.40
64336;BME280;50672;53.362;-6.240;2022-08-18T03:01:44;101293.16;;;16.17;60.53
64336;BME280;50672;53.362;-6.240;2022-08-18T03:04:13;101290.78;;;16.14;60.74
64336;BME280;50672;53.362;-6.240;2022-08-18T03:06:42;101293.09;;;16.11;60.54
64336;BME280;50672;53.362;-6.240;2022-08-18T03:09:12;101282.53;;;16.08;60.47
64336;BME280;50672;53.362;-6.240;2022-08-18T03:11:39;101285.44;;;16.06;60.82
64336;BME280;50672;53.362;-6.240;2022-08-18T03:14:09;101283.09;;;16.03;60.71
64336;BME280;50672;53.362;-6.240;2022-08-18T03:16:39;101287.56;;;16.04;60.34
64336;BME280;50672;53.362;-6.240;2022-08-18T03:19:24;101282.31;;;16.09;60.37
64336;BME280;50672;53.362;-6.240;2022-08-18T03:21:54;101273.47;;;16.14;60.35
64336;BME280;50672;53.362;-6.240;2022-08-18T03:24:26;101268.44;;;16.17;60.34
64336;BME280;50672;53.362;-6.240;2022-08-18T03:26:54;101277.78;;;16.23;60.29
64336;BME280;50672;53.362;-6.240;2022-08-18T03:29:23;101269.13;;;16.26;60.16
64336;BME280;50672;53.362;-6.240;2022-08-18T03:31:58;101279.09;;;16.27;60.02
64336;BME280;50672;53.362;-6.240;2022-08-18T03:34:25;101269.78;;;16.28;60.20
64336;BME280;50672;53.362;-6.240;2022-08-18T03:36:52;101269.13;;;16.26;60.23
64336;BME280;50672;53.362;-6.240;2022-08-18T03:39:20;101268.94;;;16.28;60.10
64336;BME280;50672;53.362;-6.240;2022-08-18T03:41:50;101269.56;;;16.30;60.04
64336;BME280;50672;53.362;-6.240;2022-08-18T03:44:27;101263.22;;;16.29;60.29
64336;BME280;50672;53.362;-6.240;2022-08-18T03:46:55;101259.44;;;16.30;60.04
64336;BME280;50672;53.362;-6.240;2022-08-18T03:49:22;101255.00;;;16.29;60.43
64336;BME280;50672;53.362;-6.240;2022-08-18T03:51:49;101256.03;;;16.28;60.49
64336;BME280;50672;53.362;-6.240;2022-08-18T03:54:17;101254.75;;;16.24;60.77
64336;BME280;50672;53.362;-6.240;2022-08-18T03:56:47;101256.84;;;16.22;60.64
64336;BME280;50672;53.362;-6.240;2022-08-18T03:59:18;101256.00;;;16.21;61.17
64336;BME280;50672;53.362;-6.240;2022-08-18T04:01:47;101242.28;;;16.21;61.23
64336;BME280;50672;53.362;-6.240;2022-08-18T04:04:20;101254.09;;;16.22;61.80
64336;BME280;50672;53.362;-6.240;2022-08-18T04:06:53;101247.38;;;16.25;62.07
64336;BME280;50672;53.362;-6.240;2022-08-18T04:09:21;101248.19;;;16.25;62.11
64336;BME280;50672;53.362;-6.240;2022-08-18T04:11:50;101231.72;;;16.25;62.34
64336;BME280;50672;53.362;-6.240;2022-08-18T04:14:19;101231.72;;;16.25;62.59
64336;BME280;50672;53.362;-6.240;2022-08-18T04:16:47;101235.50;;;16.24;62.84
64336;BME280;50672;53.362;-6.240;2022-08-18T04:19:15;101223.88;;;16.22;62.96
64336;BME280;50672;53.362;-6.240;2022-08-18T04:21:55;101236.78;;;16.21;63.00
64336;BME280;50672;53.362;-6.240;2022-08-18T04:24:22;101231.47;;;16.20;63.20
64336;BME280;50672;53.362;-6.240;2022-08-18T04:26:51;101234.03;;;16.21;63.70
64336;BME280;50672;53.362;-6.240;2022-08-18T04:29:19;101231.09;;;16.23;63.54
64336;BME280;50672;53.362;-6.240;2022-08-18T04:31:48;101227.94;;;16.26;63.78
64336;BME280;50672;53.362;-6.240;2022-08-18T04:34:16;101211.44;;;16.26;63.94
64336;BME280;50672;53.362;-6.240;2022-08-18T04:36:44;101212.06;;;16.21;64.12
64336;BME280;50672;53.362;-6.240;2022-08-18T04:39:12;101216.06;;;16.19;64.13
64336;BME280;50672;53.362;-6.240;2022-08-18T04:41:42;101219.84;;;16.18;64.12
64336;BME280;50672;53.362;-6.240;2022-08-18T04:44:11;101226.38;;;16.17;64.00
64336;BME280;50672;53.362;-6.240;2022-08-18T04:46:42;101221.94;;;16.16;64.47
64336;BME280;50672;53.362;-6.240;2022-08-18T04:49:10;101214.56;;;16.16;64.55
64336;BME280;50672;53.362;-6.240;2022-08-18T04:51:41;101216.25;;;16.17;64.47
64336;BME280;50672;53.362;-6.240;2022-08-18T04:54:28;101219.00;;;16.17;64.59
64336;BME280;50672;53.362;-6.240;2022-08-18T04:56:55;101225.34;;;16.18;65.19
64336;BME280;50672;53.362;-6.240;2022-08-18T04:59:22;101211.59;;;16.18;65.04
64336;BME280;50672;53.362;-6.240;2022-08-18T05:01:50;101217.31;;;16.16;65.14
64336;BME280;50672;53.362;-6.240;2022-08-18T05:04:17;101213.53;;;16.17;65.23
64336;BME280;50672;53.362;-6.240;2022-08-18T05:06:44;101201.66;;;16.17;65.26
64336;BME280;50672;53.362;-6.240;2022-08-18T05:09:13;101206.13;;;16.18;65.96
64336;BME280;50672;53.362;-6.240;2022-08-18T05:11:49;101193.44;;;16.17;65.85
64336;BME280;50672;53.362;-6.240;2022-08-18T05:14:17;101198.28;;;16.15;66.27
64336;BME280;50672;53.362;-6.240;2022-08-18T05:16:44;101199.31;;;16.14;66.25
64336;BME280;50672;53.362;-6.240;2022-08-18T05:19:18;101205.03;;;16.12;66.71
64336;BME280;50672;53.362;-6.240;2022-08-18T05:21:52;101206.94;;;16.12;66.83
64336;BME280;50672;53.362;-6.240;2022-08-18T05:24:27;101197.00;;;16.11;66.82
64336;BME280;50672;53.362;-6.240;2022-08-18T05:27:03;101205.44;;;16.09;66.99
64336;BME280;50672;53.362;-6.240;2022-08-18T05:29:30;101207.31;;;16.09;67.53
64336;BME280;50672;53.362;-6.240;2022-08-18T05:32:12;101200.78;;;16.10;67.42
64336;BME280;50672;53.362;-6.240;2022-08-18T05:35:14;101189.78;;;16.10;67.94
64336;BME280;50672;53.362;-6.240;2022-08-18T05:37:51;101188.97;;;16.09;67.98
64336;BME280;50672;53.362;-6.240;2022-08-18T05:40:22;101186.00;;;16.11;68.09
64336;BME280;50672;53.362;-6.240;2022-08-18T05:42:50;101176.72;;;16.12;68.72
64336;BME280;50672;53.362;-6.240;2022-08-18T05:45:19;101186.00;;;16.11;68.39
64336;BME280;50672;53.362;-6.240;2022-08-18T05:47:46;101184.09;;;16.11;68.56
64336;BME280;50672;53.362;-6.240;2022-08-18T05:50:17;101189.38;;;16.13;68.73
64336;BME280;50672;53.362;-6.240;2022-08-18T05:55:39;101183.88;;;16.13;69.09
64336;BME280;50672;53.362;-6.240;2022-08-18T06:01:12;101168.69;;;16.17;69.33
64336;BME280;50672;53.362;-6.240;2022-08-18T06:03:51;101166.16;;;16.15;69.30
64336;BME280;50672;53.362;-6.240;2022-08-18T06:06:24;101177.59;;;16.19;69.63
64336;BME280;50672;53.362;-6.240;2022-08-18T06:12:30;101159.88;;;16.21;69.94
64336;BME280;50672;53.362;-6.240;2022-08-18T06:35:44;101158.50;;;16.46;70.81
64336;BME280;50672;53.362;-6.240;2022-08-18T06:41:13;101156.19;;;16.49;70.81
64336;BME280;50672;53.362;-6.240;2022-08-18T06:44:15;101152.41;;;16.57;71.06
64336;BME280;50672;53.362;-6.240;2022-08-18T06:46:58;101151.16;;;16.60;71.08
64336;BME280;50672;53.362;-6.240;2022-08-18T06:49:37;101144.41;;;16.62;71.23
64336;BME280;50672;53.362;-6.240;2022-08-18T06:52:27;101143.16;;;16.65;70.97
64336;BME280;50672;53.362;-6.240;2022-08-18T06:54:58;101136.59;;;16.66;71.28
64336;BME280;50672;53.362;-6.240;2022-08-18T06:57:34;101144.84;;;16.66;71.26
64336;BME280;50672;53.362;-6.240;2022-08-18T07:00:22;101144.03;;;16.72;71.12
64336;BME280;50672;53.362;-6.240;2022-08-18T07:02:50;101145.09;;;16.78;71.52
64336;BME280;50672;53.362;-6.240;2022-08-18T07:05:21;101142.75;;;16.81;71.54
64336;BME280;50672;53.362;-6.240;2022-08-18T07:08:15;101142.38;;;16.84;71.56
64336;BME280;50672;53.362;-6.240;2022-08-18T07:10:47;101138.59;;;16.92;71.36
64336;BME280;50672;53.362;-6.240;2022-08-18T07:15:44;101145.41;;;17.23;71.13
64336;BME280;50672;53.362;-6.240;2022-08-18T07:18:25;101138.44;;;17.40;71.19
64336;BME280;50672;53.362;-6.240;2022-08-18T07:20:59;101138.25;;;17.55;70.96
64336;BME280;50672;53.362;-6.240;2022-08-18T07:23:34;101128.03;;;17.69;70.80
64336;BME280;50672;53.362;-6.240;2022-08-18T07:26:12;101138.44;;;17.81;70.78
64336;BME280;50672;53.362;-6.240;2022-08-18T07:28:44;101130.59;;;17.91;70.42
64336;BME280;50672;53.362;-6.240;2022-08-18T07:31:26;101136.09;;;17.91;70.34
64336;BME280;50672;53.362;-6.240;2022-08-18T07:34:01;101131.63;;;17.90;70.10
64336;BME280;50672;53.362;-6.240;2022-08-18T07:36:33;101131.00;;;17.88;70.04
64336;BME280;50672;53.362;-6.240;2022-08-18T07:39:14;101129.72;;;17.84;69.92
64336;BME280;50672;53.362;-6.240;2022-08-18T07:42:16;101127.41;;;17.81;70.09
64336;BME280;50672;53.362;-6.240;2022-08-18T07:45:13;101118.06;;;17.82;70.43
64336;BME280;50672;53.362;-6.240;2022-08-18T07:48:16;101122.09;;;17.86;70.49
64336;BME280;50672;53.362;-6.240;2022-08-18T07:51:51;101132.69;;;17.89;70.15
64336;BME280;50672;53.362;-6.240;2022-08-18T07:54:25;101133.56;;;17.96;70.31
64336;BME280;50672;53.362;-6.240;2022-08-18T07:57:18;101125.91;;;17.98;70.53
64336;BME280;50672;53.362;-6.240;2022-08-18T08:06:11;101114.69;;;18.00;70.36
64336;BME280;50672;53.362;-6.240;2022-08-18T08:08:50;101117.88;;;17.97;70.67
64336;BME280;50672;53.362;-6.240;2022-08-18T08:11:40;101112.34;;;17.97;70.78
64336;BME280;50672;53.362;-6.240;2022-08-18T08:15:02;101109.16;;;18.00;70.43
64336;BME280;50672;53.362;-6.240;2022-08-18T08:33:50;101094.31;;;18.14;70.88
64336;BME280;50672;53.362;-6.240;2022-08-18T08:36:26;101090.66;;;18.20;70.66
64336;BME280;50672;53.362;-6.240;2022-08-18T08:38:56;101079.63;;;18.27;70.99
64336;BME280;50672;53.362;-6.240;2022-08-18T08:41:35;101081.50;;;18.26;70.89
64336;BME280;50672;53.362;-6.240;2022-08-18T08:44:12;101077.91;;;18.26;71.12
64336;BME280;50672;53.362;-6.240;2022-08-18T08:46:51;101066.88;;;18.33;70.93
64336;BME280;50672;53.362;-6.240;2022-08-18T08:51:59;101071.84;;;18.56;70.92
64336;BME280;50672;53.362;-6.240;2022-08-18T08:54:38;101073.91;;;18.67;70.78
64336;BME280;50672;53.362;-6.240;2022-08-18T08:57:08;101075.09;;;18.78;70.66
64336;BME280;50672;53.362;-6.240;2022-08-18T08:59:37;101076.31;;;18.89;70.36
64336;BME280;50672;53.362;-6.240;2022-08-18T09:10:44;101058.25;;;19.43;69.55
64336;BME280;50672;53.362;-6.240;2022-08-18T09:18:37;101058.88;;;19.45;68.96
64336;BME280;50672;53.362;-6.240;2022-08-18T09:21:19;101058.44;;;19.49;69.04
64336;BME280;50672;53.362;-6.240;2022-08-18T09:23:52;101052.28;;;19.46;68.76
64336;BME280;50672;53.362;-6.240;2022-08-18T09:26:43;101048.91;;;19.44;68.39
64336;BME280;50672;53.362;-6.240;2022-08-18T09:31:44;101043.09;;;19.53;68.38
64336;BME280;50672;53.362;-6.240;2022-08-18T09:34:36;101031.06;;;19.66;68.23
64336;BME280;50672;53.362;-6.240;2022-08-18T09:37:21;101036.16;;;19.87;68.04
64336;BME280;50672;53.362;-6.240;2022-08-18T09:40:11;101027.06;;;20.17;67.58
64336;BME280;50672;53.362;-6.240;2022-08-18T09:43:49;101034.50;;;20.35;67.39
64336;BME280;50672;53.362;-6.240;2022-08-18T09:54:31;101023.91;;;20.32;66.18
64336;BME280;50672;53.362;-6.240;2022-08-18T09:59:52;101008.06;;;20.39;66.24
64336;BME280;50672;53.362;-6.240;2022-08-18T10:10:41;100991.75;;;21.04;65.49
64336;BME280;50672;53.362;-6.240;2022-08-18T10:19:58;100980.56;;;20.87;64.65
64336;BME280;50672;53.362;-6.240;2022-08-18T10:22:40;100979.94;;;20.85;64.74
64336;BME280;50672;53.362;-6.240;2022-08-18T10:25:10;100983.31;;;20.87;64.23
64336;BME280;50672;53.362;-6.240;2022-08-18T10:27:52;100978.03;;;20.85;64.18
64336;BME280;50672;53.362;-6.240;2022-08-18T10:36:51;100963.72;;;21.12;63.88
64336;BME280;50672;53.362;-6.240;2022-08-18T10:39:26;100970.31;;;21.34;63.64
64336;BME280;50672;53.362;-6.240;2022-08-18T10:42:26;100968.50;;;21.64;63.40
64336;BME280;50672;53.362;-6.240;2022-08-18T10:47:36;100963.81;;;22.05;62.77
64336;BME280;50672;53.362;-6.240;2022-08-18T10:50:17;100967.84;;;22.14;62.44
64336;BME280;50672;53.362;-6.240;2022-08-18T10:53:06;100960.13;;;22.16;62.06
64336;BME280;50672;53.362;-6.240;2022-08-18T10:56:45;100961.34;;;22.21;61.79
64336;BME280;50672;53.362;-6.240;2022-08-18T11:04:42;100938.28;;;22.20;61.26
64336;BME280;50672;53.362;-6.240;2022-08-18T11:07:17;100935.50;;;22.20;61.52
64336;BME280;50672;53.362;-6.240;2022-08-18T11:09:51;100944.84;;;22.14;61.39
64336;BME280;50672;53.362;-6.240;2022-08-18T11:15:25;100928.94;;;21.80;61.60
64336;BME280;50672;53.362;-6.240;2022-08-18T11:18:20;100934.75;;;21.67;61.66
64336;BME280;50672;53.362;-6.240;2022-08-18T11:21:24;100931.28;;;21.60;61.73
64336;BME280;50672;53.362;-6.240;2022-08-18T11:26:59;100917.44;;;21.60;62.19
64336;BME280;50672;53.362;-6.240;2022-08-18T11:32:11;100910.69;;;21.56;62.14
64336;BME280;50672;53.362;-6.240;2022-08-18T11:38:13;100907.09;;;21.43;62.54
64336;BME280;50672;53.362;-6.240;2022-08-18T11:41:25;100900.97;;;21.41;62.69
64336;BME280;50672;53.362;-6.240;2022-08-18T11:44:14;100900.84;;;21.36;62.79
64336;BME280;50672;53.362;-6.240;2022-08-18T11:46:43;100903.03;;;21.34;62.79
64336;BME280;50672;53.362;-6.240;2022-08-18T11:49:25;100907.38;;;21.30;63.17
64336;BME280;50672;53.362;-6.240;2022-08-18T11:52:17;100906.53;;;21.29;63.13
64336;BME280;50672;53.362;-6.240;2022-08-18T11:55:03;100910.09;;;21.42;63.35
64336;BME280;50672;53.362;-6.240;2022-08-18T11:57:53;100903.94;;;21.63;63.36
64336;BME280;50672;53.362;-6.240;2022-08-18T12:03:55;100900.34;;;21.92;63.28
64336;BME280;50672;53.362;-6.240;2022-08-18T12:07:26;100896.00;;;21.96;63.19
64336;BME280;50672;53.362;-6.240;2022-08-18T12:11:17;100896.78;;;21.79;63.13
64336;BME280;50672;53.362;-6.240;2022-08-18T12:14:49;100894.44;;;21.59;63.23
64336;BME280;50672;53.362;-6.240;2022-08-18T12:18:21;100892.84;;;21.51;63.67
64336;BME280;50672;53.362;-6.240;2022-08-18T12:21:52;100893.72;;;21.40;63.77
64336;BME280;50672;53.362;-6.240;2022-08-18T12:24:58;100897.00;;;21.37;63.94
64336;BME280;50672;53.362;-6.240;2022-08-18T12:27:26;100894.72;;;21.34;64.23
64336;BME280;50672;53.362;-6.240;2022-08-18T12:30:14;100899.31;;;21.28;64.36
64336;BME280;50672;53.362;-6.240;2022-08-18T12:32:42;100893.41;;;21.25;64.65
64336;BME280;50672;53.362;-6.240;2022-08-18T12:35:16;100892.81;;;21.23;64.59
64336;BME280;50672;53.362;-6.240;2022-08-18T12:38:07;100879.69;;;21.18;65.02
64336;BME280;50672;53.362;-6.240;2022-08-18T12:41:41;100875.97;;;21.24;65.07
64336;BME280;50672;53.362;-6.240;2022-08-18T12:45:35;100882.81;;;21.22;65.36
64336;BME280;50672;53.362;-6.240;2022-08-18T12:49:02;100869.00;;;21.22;65.48
64336;BME280;50672;53.362;-6.240;2022-08-18T12:52:28;100865.50;;;21.14;65.73
64336;BME280;50672;53.362;-6.240;2022-08-18T12:55:56;100863.81;;;21.13;65.87
64336;BME280;50672;53.362;-6.240;2022-08-18T12:59:23;100861.56;;;21.10;66.13
64336;BME280;50672;53.362;-6.240;2022-08-18T13:03:15;100865.88;;;21.06;66.08
64336;BME280;50672;53.362;-6.240;2022-08-18T13:06:58;100866.72;;;21.19;66.42
64336;BME280;50672;53.362;-6.240;2022-08-18T13:10:25;100862.44;;;21.40;66.31
64336;BME280;50672;53.362;-6.240;2022-08-18T13:14:07;100869.03;;;21.50;66.26
64336;BME280;50672;53.362;-6.240;2022-08-18T13:17:13;100861.72;;;21.56;66.00
64336;BME280;50672;53.362;-6.240;2022-08-18T13:20:06;100863.22;;;21.64;65.96
64336;BME280;50672;53.362;-6.240;2022-08-18T13:22:35;100861.25;;;21.76;66.23
64336;BME280;50672;53.362;-6.240;2022-08-18T13:25:03;100863.47;;;21.91;66.21
64336;BME280;50672;53.362;-6.240;2022-08-18T13:27:33;100856.09;;;22.43;65.95
64336;BME280;50672;53.362;-6.240;2022-08-18T13:30:11;100853.63;;;22.80;65.55
64336;BME280;50672;53.362;-6.240;2022-08-18T13:32:55;100846.31;;;23.13;65.04
64336;BME280;50672;53.362;-6.240;2022-08-18T13:35:30;100840.84;;;23.41;64.43
64336;BME280;50672;53.362;-6.240;2022-08-18T13:38:11;100822.63;;;23.50;64.07
64336;BME280;50672;53.362;-6.240;2022-08-18T13:40:45;100822.13;;;23.58;63.61
64336;BME280;50672;53.362;-6.240;2022-08-18T13:43:16;100830.41;;;23.75;63.38
64336;BME280;50672;53.362;-6.240;2022-08-18T13:45:43;100821.56;;;24.11;62.90
64336;BME280;50672;53.362;-6.240;2022-08-18T13:48:19;100829.94;;;24.48;62.27
64336;BME280;50672;53.362;-6.240;2022-08-18T13:50:46;100814.75;;;24.61;61.73
64336;BME280;50672;53.362;-6.240;2022-08-18T13:53:18;100824.31;;;24.76;61.14
64336;BME280;50672;53.362;-6.240;2022-08-18T13:55:47;100816.06;;;24.91;60.77
64336;BME280;50672;53.362;-6.240;2022-08-18T13:58:14;100803.59;;;26.03;60.17
64336;BME280;50672;53.362;-6.240;2022-08-18T14:00:46;100806.91;;;26.62;58.69
64336;BME280;50672;53.362;-6.240;2022-08-18T14:03:14;100793.47;;;26.85;57.72
64336;BME280;50672;53.362;-6.240;2022-08-18T14:06:02;100789.91;;;26.58;56.93
64336;BME280;50672;53.362;-6.240;2022-08-18T14:08:32;100788.84;;;26.23;56.37
64336;BME280;50672;53.362;-6.240;2022-08-18T14:11:01;100778.44;;;26.70;55.81
64336;BME280;50672;53.362;-6.240;2022-08-18T14:13:29;100772.00;;;26.75;55.35
64336;BME280;50672;53.362;-6.240;2022-08-18T14:16:09;100767.09;;;26.15;55.10
64336;BME280;50672;53.362;-6.240;2022-08-18T14:18:44;100771.44;;;26.78;54.73
64336;BME280;50672;53.362;-6.240;2022-08-18T14:21:42;100764.31;;;27.67;53.76
64336;BME280;50672;53.362;-6.240;2022-08-18T14:24:30;100760.97;;;27.09;53.44
64336;BME280;50672;53.362;-6.240;2022-08-18T14:27:18;100761.44;;;26.41;53.36
64336;BME280;50672;53.362;-6.240;2022-08-18T14:29:45;100755.88;;;25.95;53.68
64336;BME280;50672;53.362;-6.240;2022-08-18T14:32:20;100760.91;;;25.87;54.01
64336;BME280;50672;53.362;-6.240;2022-08-18T14:35:00;100759.19;;;25.61;54.17
64336;BME280;50672;53.362;-6.240;2022-08-18T14:37:47;100767.06;;;26.05;54.27
64336;BME280;50672;53.362;-6.240;2022-08-18T14:40:15;100762.84;;;26.38;54.01
64336;BME280;50672;53.362;-6.240;2022-08-18T14:42:42;100766.91;;;26.92;53.83
64336;BME280;50672;53.362;-6.240;2022-08-18T14:45:20;100752.41;;;27.85;53.31
64336;BME280;50672;53.362;-6.240;2022-08-18T14:48:02;100746.41;;;31.21;51.19
64336;BME280;50672;53.362;-6.240;2022-08-18T14:50:34;100761.44;;;34.12;48.01
64336;BME280;50672;53.362;-6.240;2022-08-18T14:53:02;100762.72;;;35.48;45.16
64336;BME280;50672;53.362;-6.240;2022-08-18T14:55:29;100727.41;;;34.08;43.99
64336;BME280;50672;53.362;-6.240;2022-08-18T14:57:57;100738.00;;;33.15;42.88
64336;BME280;50672;53.362;-6.240;2022-08-18T15:00:26;100733.44;;;32.79;42.67
64336;BME280;50672;53.362;-6.240;2022-08-18T15:02:53;100732.06;;;32.67;41.75
64336;BME280;50672;53.362;-6.240;2022-08-18T15:05:20;100730.69;;;31.71;41.66
64336;BME280;50672;53.362;-6.240;2022-08-18T15:07:50;100738.31;;;30.03;42.28
64336;BME280;50672;53.362;-6.240;2022-08-18T15:10:18;100732.97;;;28.34;43.14
64336;BME280;50672;53.362;-6.240;2022-08-18T15:12:49;100730.59;;;26.98;44.46
64336;BME280;50672;53.362;-6.240;2022-08-18T15:15:17;100757.00;;;25.83;45.87
64336;BME280;50672;53.362;-6.240;2022-08-18T15:17:44;100777.03;;;25.54;47.47
64336;BME280;50672;53.362;-6.240;2022-08-18T15:20:20;100767.31;;;26.44;48.22
64336;BME280;50672;53.362;-6.240;2022-08-18T15:22:49;100770.88;;;26.81;48.07
64336;BME280;50672;53.362;-6.240;2022-08-18T15:25:35;100758.66;;;26.36;48.50
64336;BME280;50672;53.362;-6.240;2022-08-18T15:28:02;100771.25;;;26.33;48.66
64336;BME280;50672;53.362;-6.240;2022-08-18T15:30:30;100772.69;;;27.17;48.93
64336;BME280;50672;53.362;-6.240;2022-08-18T15:32:57;100783.94;;;28.89;47.73
64336;BME280;50672;53.362;-6.240;2022-08-18T15:35:29;100776.72;;;29.70;46.41
64336;BME280;50672;53.362;-6.240;2022-08-18T15:37:57;100774.25;;;29.01;45.94
64336;BME280;50672;53.362;-6.240;2022-08-18T15:40:25;100773.88;;;30.08;45.04
64336;BME280;50672;53.362;-6.240;2022-08-18T15:43:05;100762.25;;;31.67;43.24
64336;BME280;50672;53.362;-6.240;2022-08-18T15:45:40;100773.75;;;34.16;41.12
64336;BME280;50672;53.362;-6.240;2022-08-18T15:48:25;100772.59;;;35.84;38.90
64336;BME280;50672;53.362;-6.240;2022-08-18T15:50:53;100771.84;;;36.41;36.97